createdAt,value
2022-12-07T00:02:25.378Z,99989.73
2022-12-07T00:05:31.477Z,99989.08
2022-12-07T00:08:37.136Z,99989.11
2022-12-07T00:11:42.873Z,99988.23
2022-12-07T00:14:48.876Z,99985.41
2022-12-07T00:17:54.275Z,99985.20
2022-12-07T00:21:03.319Z,99984.41
2022-12-07T00:24:09.098Z,99981.23
2022-12-07T00:27:14.522Z,99983.83
2022-12-07T00:30:19.987Z,99982.64
2022-12-07T00:33:25.217Z,99979.31
2022-12-07T00:36:30.690Z,99974.23
2022-12-07T00:39:36.063Z,99971.55
2022-12-07T00:42:41.659Z,99966.77
2022-12-07T00:45:47.101Z,99964.27
2022-12-07T00:48:53.295Z,99963.68
2022-12-07T00:51:58.550Z,99968.96
2022-12-07T00:55:04.152Z,99971.48
2022-12-07T00:58:09.897Z,99972.30
2022-12-07T01:01:15.297Z,99967.32
2022-12-07T01:04:20.562Z,99964.63
2022-12-07T01:07:25.947Z,99967.30
2022-12-07T01:10:32.614Z,99963.12
2022-12-07T01:13:37.951Z,99956.45
2022-12-07T01:16:43.556Z,99957.00
2022-12-07T01:19:48.924Z,99960.11
2022-12-07T01:22:54.165Z,99956.42
2022-12-07T01:26:00.226Z,99955.11
2022-12-07T01:29:08.638Z,99953.48
2022-12-07T01:32:14.081Z,99955.60
2022-12-07T01:35:19.505Z,99956.22
2022-12-07T01:38:24.985Z,99955.13
2022-12-07T01:41:31.317Z,99958.22
2022-12-07T01:44:50.275Z,99954.15
2022-12-07T01:47:57.575Z,99951.16
2022-12-07T01:51:06.099Z,99948.36
2022-12-07T01:54:12.218Z,99941.13
2022-12-07T01:57:18.206Z,99944.64
2022-12-07T02:00:23.814Z,99936.13
2022-12-07T02:03:31.289Z,99932.65
2022-12-07T02:06:37.779Z,99925.02
2022-12-07T02:09:43.376Z,99929.99
2022-12-07T02:12:49.447Z,99928.21
2022-12-07T02:16:01.766Z,99928.63
2022-12-07T02:19:21.782Z,99924.38
2022-12-07T02:22:36.864Z,99922.25
2022-12-07T02:25:55.874Z,99920.38
2022-12-07T02:29:12.308Z,99911.30
2022-12-07T02:32:18.903Z,99911.20
2022-12-07T02:35:27.443Z,99905.67
2022-12-07T02:38:37.608Z,99903.55
2022-12-07T02:41:46.262Z,99906.96
2022-12-07T02:44:52.822Z,99907.03
2022-12-07T02:48:00.959Z,99900.13
2022-12-07T02:51:06.569Z,99902.58
2022-12-07T02:54:13.943Z,99899.38
2022-12-07T02:57:27.708Z,99896.56
2022-12-07T03:00:35.052Z,99898.52
2022-12-07T03:03:42.212Z,99900.93
2022-12-07T03:06:51.842Z,99902.06
2022-12-07T03:10:02.154Z,99907.21
2022-12-07T03:13:11.766Z,99908.36
2022-12-07T03:16:18.528Z,99911.93
2022-12-07T03:19:24.714Z,99909.35
2022-12-07T03:22:31.472Z,99914.61
2022-12-07T03:25:38.605Z,99912.07
2022-12-07T03:28:46.435Z,99914.96
2022-12-07T03:31:55.999Z,99915.51
2022-12-07T03:35:03.865Z,99918.33
2022-12-07T03:38:15.530Z,99918.91
2022-12-07T03:41:24.680Z,99917.16
2022-12-07T03:44:30.820Z,99912.09
2022-12-07T03:47:40.414Z,99905.83
2022-12-07T03:50:49.064Z,99908.07
2022-12-07T03:53:57.258Z,99905.63
2022-12-07T03:57:03.487Z,99901.70
2022-12-07T04:00:10.107Z,99898.27
2022-12-07T04:03:18.556Z,99902.27
2022-12-07T04:06:23.983Z,99900.63
2022-12-07T04:09:29.330Z,99899.91
2022-12-07T04:12:34.743Z,99900.09
2022-12-07T04:15:39.982Z,99895.04
2022-12-07T04:18:45.293Z,99892.78
2022-12-07T04:21:52.308Z,99890.59
2022-12-07T04:24:58.371Z,99878.32
2022-12-07T04:28:03.769Z,99872.05
2022-12-07T04:31:09.333Z,99873.29
2022-12-07T04:34:15.341Z,99878.46
2022-12-07T04:37:20.966Z,99886.75
2022-12-07T04:40:26.393Z,99883.77
2022-12-07T04:43:31.683Z,99878.31
2022-12-07T04:46:37.194Z,99874.46
2022-12-07T04:49:42.846Z,99867.66
2022-12-07T04:52:48.340Z,99866.50
2022-12-07T04:55:53.792Z,99862.89
2022-12-07T04:58:59.672Z,99854.20
2022-12-07T05:02:05.239Z,99845.19
2022-12-07T05:05:11.292Z,99845.55
2022-12-07T05:08:17.168Z,99841.78
2022-12-07T05:11:36.678Z,99843.27
2022-12-07T05:15:12.457Z,99842.17
2022-12-07T05:19:11.816Z,99839.84
2022-12-07T05:22:17.596Z,99837.33
2022-12-07T05:25:41.003Z,99837.00
2022-12-07T05:28:53.926Z,99841.23
2022-12-07T05:31:59.468Z,99838.50
2022-12-07T05:35:06.297Z,99843.19
2022-12-07T05:38:11.903Z,99838.94
2022-12-07T05:41:36.302Z,99842.16
2022-12-07T05:44:42.063Z,99839.88
2022-12-07T05:47:47.409Z,99837.02
2022-12-07T05:50:53.155Z,99838.09
2022-12-07T05:53:58.442Z,99837.22
2022-12-07T05:57:03.871Z,99830.89
2022-12-07T06:00:10.485Z,99832.48
2022-12-07T06:03:17.898Z,99831.55
2022-12-07T06:06:23.394Z,99833.67
2022-12-07T06:09:29.323Z,99831.35
2022-12-07T06:12:39.437Z,99833.02
2022-12-07T06:15:45.450Z,99829.39
2022-12-07T06:18:50.916Z,99829.98
2022-12-07T06:21:56.366Z,99830.42
2022-12-07T06:25:07.103Z,99833.14
2022-12-07T06:28:14.055Z,99829.12
2022-12-07T06:31:19.691Z,99828.90
2022-12-07T06:34:25.862Z,99826.66
2022-12-07T06:37:31.218Z,99823.81
2022-12-07T06:40:36.692Z,99817.36
2022-12-07T06:43:43.179Z,99824.96
2022-12-07T06:46:48.671Z,99817.44
2022-12-07T06:49:54.053Z,99817.35
2022-12-07T06:52:59.638Z,99819.95
2022-12-07T06:56:05.691Z,99818.90
2022-12-07T06:59:11.341Z,99815.77
2022-12-07T07:02:16.672Z,99814.69
2022-12-07T07:05:23.273Z,99818.00
2022-12-07T07:08:28.581Z,99816.87
2022-12-07T07:11:34.067Z,99816.94
2022-12-07T07:14:39.411Z,99815.68
2022-12-07T07:17:44.986Z,99814.48
2022-12-07T07:20:50.445Z,99811.73
2022-12-07T07:23:55.870Z,99809.51
2022-12-07T07:27:01.272Z,99804.31
2022-12-07T07:30:07.513Z,99801.51
2022-12-07T07:33:13.366Z,99801.38
2022-12-07T07:36:18.732Z,99804.09
2022-12-07T07:39:24.217Z,99800.88
2022-12-07T07:42:29.856Z,99798.09
2022-12-07T07:45:35.247Z,99799.29
2022-12-07T07:48:40.692Z,99793.29
2022-12-07T07:51:46.078Z,99790.83
2022-12-07T07:54:51.484Z,99794.58
2022-12-07T07:57:57.058Z,99794.70
2022-12-07T08:01:07.244Z,99793.61
2022-12-07T08:04:12.776Z,99789.45
2022-12-07T08:07:18.364Z,99784.27
2022-12-07T08:10:23.680Z,99781.89
2022-12-07T08:13:31.222Z,99784.11
2022-12-07T08:16:37.312Z,99777.00
2022-12-07T08:19:42.929Z,99775.06
2022-12-07T08:22:48.445Z,99776.20
2022-12-07T08:25:53.806Z,99774.75
2022-12-07T08:28:59.600Z,99773.43
2022-12-07T08:32:09.455Z,99778.70
2022-12-07T08:35:15.456Z,99781.48
2022-12-07T08:38:20.835Z,99778.20
2022-12-07T08:41:26.254Z,99778.63
2022-12-07T08:44:31.665Z,99772.59
2022-12-07T08:47:38.255Z,99776.89
2022-12-07T08:50:49.287Z,99773.35
2022-12-07T08:53:56.092Z,99766.55
2022-12-07T08:57:01.661Z,99763.67
2022-12-07T09:00:07.896Z,99760.70
2022-12-07T09:03:13.243Z,99759.20
2022-12-07T09:06:18.861Z,99755.35
2022-12-07T09:09:24.476Z,99750.48
2022-12-07T09:12:29.688Z,99740.67
2022-12-07T09:15:35.604Z,99739.59
2022-12-07T09:18:40.991Z,99738.21
2022-12-07T09:21:46.443Z,99735.49
2022-12-07T09:24:51.954Z,99730.13
2022-12-07T09:28:00.512Z,99726.33
2022-12-07T09:31:24.012Z,99722.05
2022-12-07T09:34:32.547Z,99723.02
2022-12-07T09:37:38.007Z,99723.90
2022-12-07T09:40:44.798Z,99719.64
2022-12-07T09:43:52.158Z,99711.55
2022-12-07T09:46:58.493Z,99709.80
2022-12-07T09:50:08.140Z,99706.85
2022-12-07T09:53:17.268Z,99700.84
2022-12-07T09:56:23.779Z,99697.45
2022-12-07T09:59:33.746Z,99694.81
2022-12-07T10:02:44.011Z,99687.45
2022-12-07T10:05:51.550Z,99683.52
2022-12-07T10:08:56.883Z,99681.85
2022-12-07T10:12:20.232Z,99681.55
2022-12-07T10:15:25.801Z,99676.77
2022-12-07T10:18:32.697Z,99673.43
2022-12-07T10:21:38.143Z,99675.09
2022-12-07T10:24:44.182Z,99668.96
2022-12-07T10:27:59.773Z,99668.45
2022-12-07T10:31:19.539Z,99670.67
2022-12-07T10:34:26.495Z,99667.06
2022-12-07T10:37:42.067Z,99665.31
2022-12-07T10:40:47.516Z,99662.08
2022-12-07T10:43:54.224Z,99661.20
2022-12-07T10:47:07.393Z,99653.74
2022-12-07T10:50:30.843Z,99650.31
2022-12-07T10:53:52.705Z,99645.75
2022-12-07T10:57:03.133Z,99641.60
2022-12-07T11:00:15.330Z,99634.14
2022-12-07T11:03:32.335Z,99630.65
2022-12-07T11:06:41.634Z,99627.29
2022-12-07T11:10:08.940Z,99623.40
2022-12-07T11:13:29.230Z,99623.17
2022-12-07T11:16:42.110Z,99610.98
2022-12-07T11:19:55.365Z,99612.78
2022-12-07T11:23:04.638Z,99607.13
2022-12-07T11:26:16.814Z,99605.44
2022-12-07T11:29:36.538Z,99600.36
2022-12-07T11:32:53.780Z,99600.36
2022-12-07T11:36:12.200Z,99602.75
2022-12-07T11:39:24.957Z,99595.38
2022-12-07T11:42:32.992Z,99593.13
2022-12-07T11:45:40.087Z,99593.41
2022-12-07T11:48:48.995Z,99587.80
2022-12-07T11:51:58.189Z,99588.38
2022-12-07T11:55:04.709Z,99587.40
2022-12-07T11:58:17.855Z,99584.02
2022-12-07T12:01:34.791Z,99578.47
2022-12-07T12:04:47.266Z,99573.98
2022-12-07T12:11:31.215Z,99573.80
2022-12-07T12:14:46.538Z,99567.87
2022-12-07T12:17:59.461Z,99567.70
2022-12-07T12:21:06.565Z,99562.95
2022-12-07T12:24:16.433Z,99566.45
2022-12-07T12:27:24.444Z,99564.30
2022-12-07T12:30:34.495Z,99564.10
2022-12-07T12:33:40.759Z,99564.02
2022-12-07T12:36:48.061Z,99559.59
2022-12-07T12:40:07.609Z,99556.00
2022-12-07T12:43:26.439Z,99555.95
2022-12-07T12:46:50.053Z,99552.46
2022-12-07T12:50:15.063Z,99551.15
2022-12-07T12:53:25.052Z,99552.88
2022-12-07T12:56:37.898Z,99551.13
2022-12-07T12:59:44.832Z,99550.20
2022-12-07T13:02:54.616Z,99551.25
2022-12-07T13:06:17.791Z,99554.16
2022-12-07T13:09:25.058Z,99560.00
2022-12-07T13:12:30.377Z,99566.08
2022-12-07T13:15:37.467Z,99571.99
2022-12-07T13:18:43.435Z,99569.77
2022-12-07T13:21:48.747Z,99574.41
2022-12-07T13:24:58.327Z,99580.73
2022-12-07T13:28:10.233Z,99581.81
2022-12-07T13:31:34.715Z,99582.34
2022-12-07T13:34:40.754Z,99583.22
2022-12-07T13:37:46.316Z,99590.48
2022-12-07T13:41:03.196Z,99589.80
2022-12-07T13:44:11.750Z,99591.30
2022-12-07T13:47:19.689Z,99594.45
2022-12-07T13:50:27.125Z,99605.48
2022-12-07T13:53:32.638Z,99610.54
2022-12-07T13:56:40.531Z,99607.91
2022-12-07T13:59:46.416Z,99614.98
2022-12-07T14:03:00.631Z,99615.52
2022-12-07T14:06:09.105Z,99620.65
2022-12-07T14:09:21.420Z,99626.97
2022-12-07T14:12:27.948Z,99621.58
2022-12-07T14:15:35.152Z,99627.83
2022-12-07T14:18:42.045Z,99637.23
2022-12-07T14:21:47.400Z,99638.79
2022-12-07T14:24:52.828Z,99639.91
2022-12-07T14:27:59.544Z,99636.74
2022-12-07T14:31:16.426Z,99636.73
2022-12-07T14:34:26.616Z,99634.33
2022-12-07T14:37:32.895Z,99641.23
2022-12-07T14:40:40.948Z,99638.41
2022-12-07T14:44:07.009Z,99641.86
2022-12-07T14:50:39.381Z,99650.85
2022-12-07T14:53:53.135Z,99648.71
2022-12-07T14:57:03.180Z,99655.92
2022-12-07T15:00:11.100Z,99644.66
2022-12-07T15:03:16.589Z,99652.04
2022-12-07T15:06:26.130Z,99647.31
2022-12-07T15:09:31.704Z,99652.21
2022-12-07T15:12:37.197Z,99656.65
2022-12-07T15:15:42.995Z,99656.91
2022-12-07T15:19:04.852Z,99657.70
2022-12-07T15:22:14.229Z,99661.63
2022-12-07T15:25:19.594Z,99663.27
2022-12-07T15:28:25.168Z,99671.27
2022-12-07T15:34:56.007Z,99676.11
2022-12-07T15:38:01.447Z,99678.25
2022-12-07T15:41:06.839Z,99676.23
2022-12-07T15:44:31.238Z,99673.11
2022-12-07T15:48:02.412Z,99668.38
2022-12-07T15:51:11.293Z,99673.14
2022-12-07T15:54:18.309Z,99671.21
2022-12-07T15:57:25.580Z,99670.76
2022-12-07T16:00:35.148Z,99670.31
2022-12-07T16:03:40.745Z,99673.58
2022-12-07T16:06:46.611Z,99673.06
2022-12-07T16:09:52.091Z,99678.11
2022-12-07T16:12:57.535Z,99677.20
2022-12-07T16:16:05.409Z,99673.39
2022-12-07T16:19:12.102Z,99683.20
2022-12-07T16:22:17.609Z,99681.08
2022-12-07T16:25:23.879Z,99679.30
2022-12-07T16:28:30.258Z,99675.64
2022-12-07T16:31:36.003Z,99678.41
2022-12-07T16:34:41.949Z,99674.19
2022-12-07T16:37:47.362Z,99679.29
2022-12-07T16:40:53.083Z,99680.66
2022-12-07T16:43:58.636Z,99678.63
2022-12-07T16:47:03.978Z,99677.84
2022-12-07T16:50:10.095Z,99672.49
2022-12-07T16:53:16.318Z,99671.45
2022-12-07T16:56:21.754Z,99668.60
2022-12-07T16:59:27.300Z,99666.70
2022-12-07T17:02:32.667Z,99666.53
2022-12-07T17:05:41.104Z,99668.49
2022-12-07T17:08:46.667Z,99666.79
2022-12-07T17:11:52.419Z,99666.04
2022-12-07T17:15:15.381Z,99666.02
2022-12-07T17:18:22.648Z,99666.57
2022-12-07T17:21:32.616Z,99663.36
2022-12-07T17:24:38.611Z,99654.25
2022-12-07T17:27:46.163Z,99660.86
2022-12-07T17:30:51.939Z,99659.34
2022-12-07T17:33:57.469Z,99659.91
2022-12-07T17:37:03.355Z,99667.34
2022-12-07T17:40:11.819Z,99666.19
2022-12-07T17:43:17.500Z,99667.42
2022-12-07T17:46:22.934Z,99665.57
2022-12-07T17:49:28.557Z,99666.32
2022-12-07T17:52:56.584Z,99666.45
2022-12-07T17:56:27.576Z,99663.77
2022-12-07T17:59:27.405Z,99665.91
2022-12-07T18:02:33.014Z,99674.21
2022-12-07T18:05:39.266Z,99666.90
2022-12-07T18:08:44.661Z,99662.98
2022-12-07T18:11:50.279Z,99661.73
2022-12-07T18:14:55.627Z,99665.41
2022-12-07T18:18:01.105Z,99664.16
2022-12-07T18:21:09.100Z,99662.03
2022-12-07T18:24:16.083Z,99663.23
2022-12-07T18:27:21.473Z,99661.66
2022-12-07T18:30:49.568Z,99661.24
2022-12-07T18:33:56.054Z,99664.02
2022-12-07T18:37:01.641Z,99660.48
2022-12-07T18:40:08.550Z,99663.55
2022-12-07T18:43:13.855Z,99661.19
2022-12-07T18:46:21.052Z,99664.60
2022-12-07T18:49:26.686Z,99660.80
2022-12-07T18:52:32.139Z,99662.92
2022-12-07T18:55:38.105Z,99665.91
2022-12-07T18:59:03.912Z,99667.79
2022-12-07T19:02:11.474Z,99665.88
2022-12-07T19:05:17.818Z,99669.45
2022-12-07T19:08:23.498Z,99669.89
2022-12-07T19:11:47.013Z,99666.69
2022-12-07T19:14:54.860Z,99665.45
2022-12-07T19:18:00.387Z,99666.54
2022-12-07T19:21:06.051Z,99668.12
2022-12-07T19:24:11.653Z,99669.13
2022-12-07T19:27:17.791Z,99670.84
2022-12-07T19:30:23.262Z,99671.67
2022-12-07T19:33:30.005Z,99672.52
2022-12-07T19:36:35.431Z,99676.94
2022-12-07T19:39:41.433Z,99678.89
2022-12-07T19:42:46.704Z,99684.64
2022-12-07T19:45:52.096Z,99682.85
2022-12-07T19:48:57.931Z,99677.69
2022-12-07T19:52:05.336Z,99680.36
2022-12-07T19:55:11.055Z,99680.20
2022-12-07T19:58:16.477Z,99685.66
2022-12-07T20:01:21.893Z,99682.93
2022-12-07T20:04:28.806Z,99681.13
2022-12-07T20:07:39.128Z,99684.38
2022-12-07T20:10:45.048Z,99682.28
2022-12-07T20:13:50.728Z,99685.15
2022-12-07T20:16:56.437Z,99679.20
2022-12-07T20:20:01.774Z,99679.99
2022-12-07T20:23:07.428Z,99681.90
2022-12-07T20:26:14.742Z,99681.29
2022-12-07T20:29:21.716Z,99683.45
2022-12-07T20:32:27.021Z,99687.03
2022-12-07T20:35:32.630Z,99684.83
2022-12-07T20:38:38.171Z,99685.23
2022-12-07T20:42:01.508Z,99688.42
2022-12-07T20:45:09.863Z,99692.88
2022-12-07T20:48:16.217Z,99694.13
2022-12-07T20:51:21.624Z,99698.30
2022-12-07T20:54:27.102Z,99698.08
2022-12-07T20:57:32.528Z,99700.22
2022-12-07T21:00:38.434Z,99701.25
2022-12-07T21:03:44.465Z,99701.34
2022-12-07T21:06:49.872Z,99700.33
2022-12-07T21:09:55.411Z,99701.58
2022-12-07T21:13:00.821Z,99707.33
2022-12-07T21:16:09.553Z,99705.60
2022-12-07T21:19:15.186Z,99708.42
2022-12-07T21:22:20.632Z,99703.58
2022-12-07T21:25:25.889Z,99712.46
2022-12-07T21:28:31.547Z,99709.31
2022-12-07T21:31:37.386Z,99717.40
2022-12-07T21:34:42.887Z,99721.81
2022-12-07T21:37:48.329Z,99725.75
2022-12-07T21:40:53.621Z,99729.59
2022-12-07T21:43:59.445Z,99733.65
2022-12-07T21:47:05.004Z,99741.14
2022-12-07T21:50:11.889Z,99744.78
2022-12-07T21:53:17.215Z,99742.00
2022-12-07T21:56:24.129Z,99744.30
2022-12-07T21:59:29.451Z,99746.21
2022-12-07T22:02:35.143Z,99746.08
2022-12-07T22:05:40.719Z,99745.02
2022-12-07T22:08:46.538Z,99751.23
2022-12-07T22:11:52.160Z,99752.87
2022-12-07T22:15:10.454Z,99754.38
2022-12-07T22:18:15.868Z,99754.68
2022-12-07T22:21:21.123Z,99757.89
2022-12-07T22:24:26.382Z,99756.80
2022-12-07T22:27:31.964Z,99760.04
2022-12-07T22:30:37.449Z,99755.23
2022-12-07T22:33:43.200Z,99756.78
2022-12-07T22:36:48.613Z,99757.38
2022-12-07T22:39:53.991Z,99757.80
2022-12-07T22:43:01.583Z,99761.36
2022-12-07T22:46:07.394Z,99753.91
2022-12-07T22:49:12.708Z,99756.39
2022-12-07T22:52:18.114Z,99760.16
2022-12-07T22:55:23.470Z,99758.86
2022-12-07T22:58:28.821Z,99755.88
2022-12-07T23:01:34.321Z,99757.70
2022-12-07T23:04:39.788Z,99757.34
2022-12-07T23:07:45.178Z,99758.58
2022-12-07T23:10:50.607Z,99761.04
2022-12-07T23:13:55.963Z,99764.23
2022-12-07T23:17:01.782Z,99759.88
2022-12-07T23:20:08.522Z,99759.38
2022-12-07T23:23:13.807Z,99760.83
2022-12-07T23:26:19.304Z,99762.75
2022-12-07T23:29:24.750Z,99768.70
2022-12-07T23:32:30.177Z,99769.19
2022-12-07T23:35:35.537Z,99772.00
2022-12-07T23:38:41.353Z,99770.46
2022-12-07T23:41:46.712Z,99771.94
2022-12-07T23:44:51.995Z,99769.59
2022-12-07T23:47:57.304Z,99770.33
2022-12-07T23:51:02.691Z,99771.54
2022-12-07T23:54:08.161Z,99770.43
2022-12-07T23:57:13.545Z,99772.17
